sensor_id;sensor_type;location;lat;lon;timestamp;pressure;altitude;pressure_sealevel;temperature;humidity
6500;BME280;3283;52.330;9.772;2024-02-16T11:05:47;99632.47;;;11.78;89.65
6500;BME280;3283;52.330;9.772;2024-02-16T11:08:17;99637.88;;;12.00;85.61
6500;BME280;3283;52.330;9.772;2024-02-16T11:13:28;99629.22;;;12.22;82.59
6500;BME280;3283;52.330;9.772;2024-02-16T11:15:58;99631.38;;;12.35;81.75
6500;BME280;3283;52.330;9.772;2024-02-16T11:18:25;99629.25;;;12.45;80.81
6500;BME280;3283;52.330;9.772;2024-02-16T11:20:52;99627.09;;;12.56;79.95
6500;BME280;3283;52.330;9.772;2024-02-16T11:23:25;99624.25;;;12.61;78.66
6500;BME280;3283;52.330;9.772;2024-02-16T11:25:52;99619.09;;;12.09;81.92
6500;BME280;3283;52.330;9.772;2024-02-16T11:28:18;99623.31;;;11.62;82.78
6500;BME280;3283;52.330;9.772;2024-02-16T11:30:43;99627.84;;;11.59;86.23
6500;BME280;3283;52.330;9.772;2024-02-16T11:33:12;99623.63;;;11.79;84.71
6500;BME280;3283;52.330;9.772;2024-02-16T11:35:37;99628.63;;;12.14;83.66
6500;BME280;3283;52.330;9.772;2024-02-16T11:38:04;99630.59;;;12.32;81.21
6500;BME280;3283;52.330;9.772;2024-02-16T11:40:29;99637.66;;;12.31;81.58
6500;BME280;3283;52.330;9.772;2024-02-16T11:43:01;99635.47;;;12.19;81.53
6500;BME280;3283;52.330;9.772;2024-02-16T11:45:27;99620.25;;;12.27;79.99
6500;BME280;3283;52.330;9.772;2024-02-16T11:48:08;99633.47;;;12.26;81.01
6500;BME280;3283;52.330;9.772;2024-02-16T11:50:35;99632.44;;;12.78;79.08
6500;BME280;3283;52.330;9.772;2024-02-16T11:53:00;99632.94;;;12.88;76.18
6500;BME280;3283;52.330;9.772;2024-02-16T11:55:26;99633.47;;;12.98;77.17
6500;BME280;3283;52.330;9.772;2024-02-16T11:57:51;99628.69;;;12.84;76.80
6500;BME280;3283;52.330;9.772;2024-02-16T12:00:17;99635.88;;;12.80;76.44
6500;BME280;3283;52.330;9.772;2024-02-16T12:02:43;99639.78;;;13.61;73.78
6500;BME280;3283;52.330;9.772;2024-02-16T12:05:09;99649.22;;;13.66;72.23
6500;BME280;3283;52.330;9.772;2024-02-16T12:07:37;99630.78;;;13.65;71.98
6500;BME280;3283;52.330;9.772;2024-02-16T12:10:06;99625.63;;;13.62;71.72
6500;BME280;3283;52.330;9.772;2024-02-16T12:12:32;99620.41;;;13.81;72.05
6500;BME280;3283;52.330;9.772;2024-02-16T12:14:58;99633.81;;;13.98;71.55
6500;BME280;3283;52.330;9.772;2024-02-16T12:17:23;99629.56;;;13.94;71.05
6500;BME280;3283;52.330;9.772;2024-02-16T12:19:50;99632.19;;;13.94;71.56
6500;BME280;3283;52.330;9.772;2024-02-16T12:22:20;99638.25;;;13.97;70.34
6500;BME280;3283;52.330;9.772;2024-02-16T12:24:46;99642.59;;;13.98;70.27
6500;BME280;3283;52.330;9.772;2024-02-16T12:27:12;99652.94;;;14.25;69.96
6500;BME280;3283;52.330;9.772;2024-02-16T12:29:38;99652.97;;;14.23;69.48
6500;BME280;3283;52.330;9.772;2024-02-16T12:32:04;99645.91;;;14.04;69.17
6500;BME280;3283;52.330;9.772;2024-02-16T12:34:30;99642.19;;;13.87;69.17
6500;BME280;3283;52.330;9.772;2024-02-16T12:36:56;99637.19;;;12.92;72.33
6500;BME280;3283;52.330;9.772;2024-02-16T12:39:22;99630.78;;;12.76;74.03
6500;BME280;3283;52.330;9.772;2024-02-16T12:41:47;99633.66;;;12.70;75.77
6500;BME280;3283;52.330;9.772;2024-02-16T12:44:14;99641.22;;;12.79;74.07
6500;BME280;3283;52.330;9.772;2024-02-16T12:46:39;99646.41;;;13.27;74.62
6500;BME280;3283;52.330;9.772;2024-02-16T12:49:06;99632.91;;;13.35;73.79
6500;BME280;3283;52.330;9.772;2024-02-16T12:51:32;99633.25;;;12.32;76.38
6500;BME280;3283;52.330;9.772;2024-02-16T12:53:57;99637.06;;;12.72;79.73
6500;BME280;3283;52.330;9.772;2024-02-16T12:56:25;99631.59;;;13.23;76.59
6500;BME280;3283;52.330;9.772;2024-02-16T12:58:51;99639.28;;;13.29;75.14
6500;BME280;3283;52.330;9.772;2024-02-16T13:01:16;99632.94;;;13.11;75.52
6500;BME280;3283;52.330;9.772;2024-02-16T13:03:44;99625.13;;;12.85;76.93
6500;BME280;3283;52.330;9.772;2024-02-16T13:06:10;99626.94;;;13.06;77.22
6500;BME280;3283;52.330;9.772;2024-02-16T13:08:36;99643.78;;;12.33;80.17
6500;BME280;3283;52.330;9.772;2024-02-16T13:11:02;99644.19;;;12.93;83.17
6500;BME280;3283;52.330;9.772;2024-02-16T13:13:28;99649.47;;;12.93;84.61
6500;BME280;3283;52.330;9.772;2024-02-16T13:15:54;99652.09;;;12.93;84.55
6500;BME280;3283;52.330;9.772;2024-02-16T13:18:21;99648.38;;;12.99;82.81
6500;BME280;3283;52.330;9.772;2024-02-16T13:20:46;99643.66;;;13.07;84.07
6500;BME280;3283;52.330;9.772;2024-02-16T13:23:12;99650.78;;;13.05;84.20
6500;BME280;3283;52.330;9.772;2024-02-16T13:25:39;99653.72;;;13.21;80.52
6500;BME280;3283;52.330;9.772;2024-02-16T13:28:04;99650.16;;;12.98;81.28
6500;BME280;3283;52.330;9.772;2024-02-16T13:30:30;99652.97;;;12.93;80.88
6500;BME280;3283;52.330;9.772;2024-02-16T13:32:56;99648.91;;;12.85;81.87
6500;BME280;3283;52.330;9.772;2024-02-16T13:35:22;99649.34;;;12.73;82.67
6500;BME280;3283;52.330;9.772;2024-02-16T13:37:48;99647.66;;;12.47;83.14
6500;BME280;3283;52.330;9.772;2024-02-16T13:40:14;99636.94;;;12.51;83.27
6500;BME280;3283;52.330;9.772;2024-02-16T13:42:41;99641.13;;;12.33;84.08
6500;BME280;3283;52.330;9.772;2024-02-16T13:45:07;99636.00;;;12.29;84.64
6500;BME280;3283;52.330;9.772;2024-02-16T13:47:33;99639.66;;;12.25;85.54
6500;BME280;3283;52.330;9.772;2024-02-16T13:49:58;99627.72;;;12.15;86.65
6500;BME280;3283;52.330;9.772;2024-02-16T13:52:25;99646.28;;;12.12;87.09
6500;BME280;3283;52.330;9.772;2024-02-16T13:54:50;99641.50;;;12.23;87.34
6500;BME280;3283;52.330;9.772;2024-02-16T13:57:16;99639.72;;;11.98;87.65
6500;BME280;3283;52.330;9.772;2024-02-16T13:59:42;99646.50;;;12.05;87.62
6500;BME280;3283;52.330;9.772;2024-02-16T14:02:09;99645.53;;;12.08;87.43
6500;BME280;3283;52.330;9.772;2024-02-16T14:04:35;99642.84;;;12.09;87.07
6500;BME280;3283;52.330;9.772;2024-02-16T14:07:01;99649.41;;;12.23;87.28
6500;BME280;3283;52.330;9.772;2024-02-16T14:09:26;99658.94;;;12.27;87.78
6500;BME280;3283;52.330;9.772;2024-02-16T14:11:52;99680.75;;;11.79;88.75
6500;BME280;3283;52.330;9.772;2024-02-16T14:14:19;99670.84;;;12.14;88.56
6500;BME280;3283;52.330;9.772;2024-02-16T14:16:45;99681.81;;;12.01;89.55
6500;BME280;3283;52.330;9.772;2024-02-16T14:19:10;99681.47;;;12.10;89.06
6500;BME280;3283;52.330;9.772;2024-02-16T14:21:35;99682.72;;;12.00;88.74
6500;BME280;3283;52.330;9.772;2024-02-16T14:24:01;99700.13;;;12.06;90.71
6500;BME280;3283;52.330;9.772;2024-02-16T14:26:26;99703.63;;;12.05;90.18
6500;BME280;3283;52.330;9.772;2024-02-16T14:28:53;99707.13;;;11.79;91.50
6500;BME280;3283;52.330;9.772;2024-02-16T14:31:18;99696.41;;;11.85;91.25
6500;BME280;3283;52.330;9.772;2024-02-16T14:33:46;99704.28;;;12.13;90.98
6500;BME280;3283;52.330;9.772;2024-02-16T14:36:11;99698.25;;;12.34;89.96
6500;BME280;3283;52.330;9.772;2024-02-16T14:38:37;99707.03;;;12.35;88.53
6500;BME280;3283;52.330;9.772;2024-02-16T14:41:03;99711.41;;;12.09;89.76
6500;BME280;3283;52.330;9.772;2024-02-16T14:43:29;99703.00;;;11.98;90.24
6500;BME280;3283;52.330;9.772;2024-02-16T14:45:57;99704.53;;;12.30;89.27
6500;BME280;3283;52.330;9.772;2024-02-16T14:48:23;99714.41;;;11.99;90.32
6500;BME280;3283;52.330;9.772;2024-02-16T14:50:50;99724.31;;;11.63;91.35
6500;BME280;3283;52.330;9.772;2024-02-16T14:53:17;99722.78;;;11.85;92.23
6500;BME280;3283;52.330;9.772;2024-02-16T14:55:42;99712.78;;;11.95;91.50
6500;BME280;3283;52.330;9.772;2024-02-16T14:58:07;99727.22;;;11.83;91.79
6500;BME280;3283;52.330;9.772;2024-02-16T15:00:33;99733.56;;;12.04;91.92
6500;BME280;3283;52.330;9.772;2024-02-16T15:03:01;99721.25;;;11.76;92.69
6500;BME280;3283;52.330;9.772;2024-02-16T15:05:26;99728.88;;;12.14;91.31
6500;BME280;3283;52.330;9.772;2024-02-16T15:07:51;99733.16;;;12.16;91.01
6500;BME280;3283;52.330;9.772;2024-02-16T15:10:17;99729.56;;;11.92;90.76
6500;BME280;3283;52.330;9.772;2024-02-16T15:12:42;99738.50;;;12.15;90.40
6500;BME280;3283;52.330;9.772;2024-02-16T15:15:08;99736.56;;;12.20;90.67
6500;BME280;3283;52.330;9.772;2024-02-16T15:17:34;99745.44;;;12.17;91.31
6500;BME280;3283;52.330;9.772;2024-02-16T15:20:00;99743.97;;;12.08;91.66
6500;BME280;3283;52.330;9.772;2024-02-16T15:22:28;99756.44;;;12.03;92.66
6500;BME280;3283;52.330;9.772;2024-02-16T15:24:54;99768.03;;;11.99;93.19
6500;BME280;3283;52.330;9.772;2024-02-16T15:27:19;99772.50;;;11.68;95.91
6500;BME280;3283;52.330;9.772;2024-02-16T15:29:44;99784.16;;;11.89;95.09
6500;BME280;3283;52.330;9.772;2024-02-16T15:32:10;99787.78;;;11.86;95.65
6500;BME280;3283;52.330;9.772;2024-02-16T15:34:36;99787.41;;;11.97;95.50
6500;BME280;3283;52.330;9.772;2024-02-16T15:37:01;99789.19;;;11.96;95.92
6500;BME280;3283;52.330;9.772;2024-02-16T15:39:27;99794.00;;;11.83;96.76
6500;BME280;3283;52.330;9.772;2024-02-16T15:41:52;99795.63;;;11.88;97.56
6500;BME280;3283;52.330;9.772;2024-02-16T15:44:21;99800.50;;;11.72;98.14
6500;BME280;3283;52.330;9.772;2024-02-16T15:46:46;99808.31;;;11.45;100.00
6500;BME280;3283;52.330;9.772;2024-02-16T15:49:11;99810.47;;;11.61;100.00
6500;BME280;3283;52.330;9.772;2024-02-16T15:51:37;99810.19;;;11.42;100.00
6500;BME280;3283;52.330;9.772;2024-02-16T15:54:02;99816.09;;;11.48;100.00
6500;BME280;3283;52.330;9.772;2024-02-16T15:56:28;99825.66;;;11.52;100.00
6500;BME280;3283;52.330;9.772;2024-02-16T15:58:55;99824.75;;;11.53;100.00
6500;BME280;3283;52.330;9.772;2024-02-16T16:01:28;99821.59;;;11.41;100.00
6500;BME280;3283;52.330;9.772;2024-02-16T16:03:54;99829.25;;;11.19;100.00
6500;BME280;3283;52.330;9.772;2024-02-16T16:06:19;99838.34;;;11.09;100.00
6500;BME280;3283;52.330;9.772;2024-02-16T16:08:45;99839.97;;;11.13;100.00
6500;BME280;3283;52.330;9.772;2024-02-16T16:11:13;99849.69;;;11.11;100.00
6500;BME280;3283;52.330;9.772;2024-02-16T16:13:39;99850.63;;;11.08;100.00
6500;BME280;3283;52.330;9.772;2024-02-16T16:16:05;99858.50;;;10.76;100.00
6500;BME280;3283;52.330;9.772;2024-02-16T16:18:30;99865.28;;;10.52;100.00
6500;BME280;3283;52.330;9.772;2024-02-16T16:21:04;99863.56;;;10.51;100.00
6500;BME280;3283;52.330;9.772;2024-02-16T16:23:30;99865.28;;;10.52;100.00
6500;BME280;3283;52.330;9.772;2024-02-16T16:25:56;99868.81;;;10.49;100.00
6500;BME280;3283;52.330;9.772;2024-02-16T16:28:22;99865.16;;;10.56;100.00
6500;BME280;3283;52.330;9.772;2024-02-16T16:30:47;99872.06;;;10.60;100.00
6500;BME280;3283;52.330;9.772;2024-02-16T16:33:14;99884.13;;;10.69;100.00
6500;BME280;3283;52.330;9.772;2024-02-16T16:35:40;99877.81;;;10.76;100.00
6500;BME280;3283;52.330;9.772;2024-02-16T16:38:05;99886.19;;;10.58;100.00
6500;BME280;3283;52.330;9.772;2024-02-16T16:40:31;99890.09;;;10.01;100.00
6500;BME280;3283;52.330;9.772;2024-02-16T16:42:57;99890.63;;;10.17;100.00
6500;BME280;3283;52.330;9.772;2024-02-16T16:45:22;99899.09;;;10.31;100.00
6500;BME280;3283;52.330;9.772;2024-02-16T16:47:49;99907.06;;;10.27;100.00
6500;BME280;3283;52.330;9.772;2024-02-16T16:50:16;99911.28;;;10.34;100.00
6500;BME280;3283;52.330;9.772;2024-02-16T16:52:45;99917.34;;;10.37;100.00
6500;BME280;3283;52.330;9.772;2024-02-16T16:55:11;99916.50;;;10.35;100.00
6500;BME280;3283;52.330;9.772;2024-02-16T16:57:36;99921.16;;;10.24;100.00
6500;BME280;3283;52.330;9.772;2024-02-16T17:00:02;99937.72;;;10.28;100.00
6500;BME280;3283;52.330;9.772;2024-02-16T17:02:27;99938.00;;;10.14;100.00
6500;BME280;3283;52.330;9.772;2024-02-16T17:04:52;99939.19;;;9.99;100.00
6500;BME280;3283;52.330;9.772;2024-02-16T17:07:18;99947.78;;;10.07;100.00
6500;BME280;3283;52.330;9.772;2024-02-16T17:09:44;99954.91;;;10.02;100.00
6500;BME280;3283;52.330;9.772;2024-02-16T17:12:09;99963.97;;;9.89;100.00
6500;BME280;3283;52.330;9.772;2024-02-16T17:14:34;99969.41;;;10.20;100.00
6500;BME280;3283;52.330;9.772;2024-02-16T17:17:00;99976.75;;;10.06;100.00
6500;BME280;3283;52.330;9.772;2024-02-16T17:19:28;99985.84;;;9.45;100.00
6500;BME280;3283;52.330;9.772;2024-02-16T17:21:54;99995.25;;;10.01;100.00
6500;BME280;3283;52.330;9.772;2024-02-16T17:24:19;99984.97;;;9.89;100.00
6500;BME280;3283;52.330;9.772;2024-02-16T17:26:45;100005.22;;;9.84;100.00
6500;BME280;3283;52.330;9.772;2024-02-16T17:29:12;100000.84;;;9.84;100.00
6500;BME280;3283;52.330;9.772;2024-02-16T17:31:37;100003.53;;;9.81;100.00
6500;BME280;3283;52.330;9.772;2024-02-16T17:34:02;100014.13;;;9.77;100.00
6500;BME280;3283;52.330;9.772;2024-02-16T17:36:32;100020.06;;;9.88;100.00
6500;BME280;3283;52.330;9.772;2024-02-16T17:38:57;100019.34;;;9.78;100.00
6500;BME280;3283;52.330;9.772;2024-02-16T17:41:23;100015.47;;;9.53;100.00
6500;BME280;3283;52.330;9.772;2024-02-16T17:43:48;100024.22;;;9.53;100.00
6500;BME280;3283;52.330;9.772;2024-02-16T17:46:14;100040.84;;;9.54;100.00
6500;BME280;3283;52.330;9.772;2024-02-16T17:48:40;100048.75;;;9.51;100.00
6500;BME280;3283;52.330;9.772;2024-02-16T17:51:06;100043.50;;;9.52;100.00
6500;BME280;3283;52.330;9.772;2024-02-16T17:53:34;100056.59;;;9.54;100.00
6500;BME280;3283;52.330;9.772;2024-02-16T17:56:00;100063.69;;;9.49;100.00
6500;BME280;3283;52.330;9.772;2024-02-16T17:58:25;100065.38;;;9.53;100.00
6500;BME280;3283;52.330;9.772;2024-02-16T18:00:51;100070.63;;;9.51;100.00
6500;BME280;3283;52.330;9.772;2024-02-16T18:03:16;100070.53;;;9.59;100.00
6500;BME280;3283;52.330;9.772;2024-02-16T18:05:43;100072.25;;;9.60;100.00
6500;BME280;3283;52.330;9.772;2024-02-16T18:08:08;100074.06;;;9.56;100.00
6500;BME280;3283;52.330;9.772;2024-02-16T18:10:34;100083.06;;;9.42;100.00
6500;BME280;3283;52.330;9.772;2024-02-16T18:13:01;100090.88;;;9.46;100.00
6500;BME280;3283;52.330;9.772;2024-02-16T18:15:26;100084.03;;;9.36;100.00
6500;BME280;3283;52.330;9.772;2024-02-16T18:17:52;100085.97;;;9.25;100.00
6500;BME280;3283;52.330;9.772;2024-02-16T18:20:17;100084.03;;;9.38;100.00
6500;BME280;3283;52.330;9.772;2024-02-16T18:22:42;100086.56;;;9.42;100.00
6500;BME280;3283;52.330;9.772;2024-02-16T18:25:08;100098.44;;;9.09;100.00
6500;BME280;3283;52.330;9.772;2024-02-16T18:27:33;100093.63;;;9.39;100.00
6500;BME280;3283;52.330;9.772;2024-02-16T18:29:59;100094.38;;;9.47;100.00
6500;BME280;3283;52.330;9.772;2024-02-16T18:32:25;100096.16;;;9.43;100.00
6500;BME280;3283;52.330;9.772;2024-02-16T18:34:50;100105.69;;;9.52;100.00
6500;BME280;3283;52.330;9.772;2024-02-16T18:37:15;100097.16;;;9.38;100.00
6500;BME280;3283;52.330;9.772;2024-02-16T18:39:41;100112.03;;;9.39;100.00
6500;BME280;3283;52.330;9.772;2024-02-16T18:42:06;100116.47;;;9.33;100.00
6500;BME280;3283;52.330;9.772;2024-02-16T18:44:32;100118.19;;;9.34;100.00
6500;BME280;3283;52.330;9.772;2024-02-16T18:46:58;100129.66;;;9.29;100.00
6500;BME280;3283;52.330;9.772;2024-02-16T18:49:24;100125.16;;;9.39;100.00
6500;BME280;3283;52.330;9.772;2024-02-16T18:51:50;100140.66;;;9.54;100.00
6500;BME280;3283;52.330;9.772;2024-02-16T18:54:15;100139.97;;;9.41;100.00
6500;BME280;3283;52.330;9.772;2024-02-16T18:56:40;100138.34;;;9.34;100.00
6500;BME280;3283;52.330;9.772;2024-02-16T18:59:07;100146.19;;;9.35;100.00
6500;BME280;3283;52.330;9.772;2024-02-16T19:01:33;100141.16;;;9.22;100.00
6500;BME280;3283;52.330;9.772;2024-02-16T19:04:00;100159.63;;;9.14;100.00
6500;BME280;3283;52.330;9.772;2024-02-16T19:06:27;100153.50;;;9.15;100.00
6500;BME280;3283;52.330;9.772;2024-02-16T19:08:53;100164.75;;;9.25;100.00
6500;BME280;3283;52.330;9.772;2024-02-16T19:11:18;100159.91;;;8.96;100.00
6500;BME280;3283;52.330;9.772;2024-02-16T19:13:46;100170.09;;;9.19;100.00
6500;BME280;3283;52.330;9.772;2024-02-16T19:16:12;100174.63;;;9.06;100.00
6500;BME280;3283;52.330;9.772;2024-02-16T19:18:37;100160.66;;;9.05;100.00
6500;BME280;3283;52.330;9.772;2024-02-16T19:21:03;100182.59;;;9.00;100.00
6500;BME280;3283;52.330;9.772;2024-02-16T19:23:28;100180.66;;;9.13;100.00
6500;BME280;3283;52.330;9.772;2024-02-16T19:25:56;100178.19;;;9.02;100.00
6500;BME280;3283;52.330;9.772;2024-02-16T19:28:21;100181.59;;;9.10;100.00
6500;BME280;3283;52.330;9.772;2024-02-16T19:30:47;100192.19;;;9.01;100.00
6500;BME280;3283;52.330;9.772;2024-02-16T19:33:12;100198.41;;;8.95;100.00
6500;BME280;3283;52.330;9.772;2024-02-16T19:35:38;100197.00;;;8.68;100.00
6500;BME280;3283;52.330;9.772;2024-02-16T19:38:04;100197.97;;;8.61;100.00
6500;BME280;3283;52.330;9.772;2024-02-16T19:40:32;100200.66;;;8.55;100.00
6500;BME280;3283;52.330;9.772;2024-02-16T19:42:58;100207.81;;;8.41;100.00
6500;BME280;3283;52.330;9.772;2024-02-16T19:45:24;100219.97;;;8.46;100.00
6500;BME280;3283;52.330;9.772;2024-02-16T19:47:50;100226.19;;;8.35;100.00
6500;BME280;3283;52.330;9.772;2024-02-16T19:50:15;100229.78;;;8.26;100.00
6500;BME280;3283;52.330;9.772;2024-02-16T19:52:41;100228.84;;;8.32;100.00
6500;BME280;3283;52.330;9.772;2024-02-16T19:55:07;100232.38;;;8.27;100.00
6500;BME280;3283;52.330;9.772;2024-02-16T19:57:32;100244.63;;;8.25;100.00
6500;BME280;3283;52.330;9.772;2024-02-16T19:59:58;100237.13;;;7.81;100.00
6500;BME280;3283;52.330;9.772;2024-02-16T20:02:24;100247.31;;;8.19;100.00
6500;BME280;3283;52.330;9.772;2024-02-16T20:04:50;100246.59;;;8.04;100.00
6500;BME280;3283;52.330;9.772;2024-02-16T20:07:17;100253.59;;;8.00;100.00
6500;BME280;3283;52.330;9.772;2024-02-16T20:09:42;100257.78;;;8.19;100.00
6500;BME280;3283;52.330;9.772;2024-02-16T20:12:08;100265.72;;;8.09;100.00
6500;BME280;3283;52.330;9.772;2024-02-16T20:14:35;100266.72;;;7.98;100.00
6500;BME280;3283;52.330;9.772;2024-02-16T20:17:00;100272.50;;;8.37;100.00
6500;BME280;3283;52.330;9.772;2024-02-16T20:19:25;100272.59;;;8.25;100.00
6500;BME280;3283;52.330;9.772;2024-02-16T20:21:52;100284.75;;;8.34;100.00
6500;BME280;3283;52.330;9.772;2024-02-16T20:24:18;100297.06;;;8.24;100.00
6500;BME280;3283;52.330;9.772;2024-02-16T20:26:45;100295.22;;;8.37;100.00
6500;BME280;3283;52.330;9.772;2024-02-16T20:29:10;100300.47;;;8.34;100.00
6500;BME280;3283;52.330;9.772;2024-02-16T20:31:35;100306.44;;;8.54;100.00
6500;BME280;3283;52.330;9.772;2024-02-16T20:34:03;100310.09;;;8.39;100.00
6500;BME280;3283;52.330;9.772;2024-02-16T20:36:30;100314.31;;;8.51;100.00
6500;BME280;3283;52.330;9.772;2024-02-16T20:38:56;100315.22;;;8.50;100.00
6500;BME280;3283;52.330;9.772;2024-02-16T20:41:24;100320.41;;;8.56;100.00
6500;BME280;3283;52.330;9.772;2024-02-16T20:43:50;100316.09;;;8.49;100.00
6500;BME280;3283;52.330;9.772;2024-02-16T20:46:15;100324.06;;;8.40;100.00
6500;BME280;3283;52.330;9.772;2024-02-16T20:48:41;100326.66;;;8.41;100.00
6500;BME280;3283;52.330;9.772;2024-02-16T20:51:06;100334.44;;;8.53;100.00
6500;BME280;3283;52.330;9.772;2024-02-16T20:53:33;100337.91;;;8.54;100.00
6500;BME280;3283;52.330;9.772;2024-02-16T20:55:58;100336.19;;;8.53;100.00
6500;BME280;3283;52.330;9.772;2024-02-16T20:58:24;100344.84;;;8.58;100.00
6500;BME280;3283;52.330;9.772;2024-02-16T21:00:49;100344.25;;;8.24;100.00
6500;BME280;3283;52.330;9.772;2024-02-16T21:03:14;100344.19;;;8.39;100.00
6500;BME280;3283;52.330;9.772;2024-02-16T21:05:40;100355.44;;;8.49;100.00
6500;BME280;3283;52.330;9.772;2024-02-16T21:08:05;100355.56;;;8.35;100.00
6500;BME280;3283;52.330;9.772;2024-02-16T21:10:31;100360.00;;;8.21;100.00
6500;BME280;3283;52.330;9.772;2024-02-16T21:12:56;100362.59;;;8.22;100.00
6500;BME280;3283;52.330;9.772;2024-02-16T21:15:22;100373.16;;;8.13;100.00
6500;BME280;3283;52.330;9.772;2024-02-16T21:17:49;100379.25;;;8.17;100.00
6500;BME280;3283;52.330;9.772;2024-02-16T21:20:14;100370.44;;;8.32;100.00
6500;BME280;3283;52.330;9.772;2024-02-16T21:22:40;100385.34;;;8.17;100.00
6500;BME280;3283;52.330;9.772;2024-02-16T21:25:07;100376.00;;;7.83;100.00
6500;BME280;3283;52.330;9.772;2024-02-16T21:27:32;100395.91;;;8.08;100.00
6500;BME280;3283;52.330;9.772;2024-02-16T21:29:59;100391.75;;;7.70;100.00
6500;BME280;3283;52.330;9.772;2024-02-16T21:32:25;100384.47;;;8.17;100.00
6500;BME280;3283;52.330;9.772;2024-02-16T21:34:50;100391.38;;;8.33;100.00
6500;BME280;3283;52.330;9.772;2024-02-16T21:37:16;100394.09;;;8.16;100.00
6500;BME280;3283;52.330;9.772;2024-02-16T21:39:43;100398.69;;;7.84;100.00
6500;BME280;3283;52.330;9.772;2024-02-16T21:42:08;100410.66;;;8.23;100.00
6500;BME280;3283;52.330;9.772;2024-02-16T21:44:35;100399.28;;;8.24;100.00
6500;BME280;3283;52.330;9.772;2024-02-16T21:47:02;100398.53;;;8.08;100.00
6500;BME280;3283;52.330;9.772;2024-02-16T21:49:30;100409.00;;;8.10;100.00
6500;BME280;3283;52.330;9.772;2024-02-16T21:51:55;100397.59;;;8.15;100.00
6500;BME280;3283;52.330;9.772;2024-02-16T21:54:21;100407.22;;;8.18;100.00
6500;BME280;3283;52.330;9.772;2024-02-16T21:56:46;100415.03;;;8.22;100.00
6500;BME280;3283;52.330;9.772;2024-02-16T21:59:12;100418.59;;;8.09;100.00
6500;BME280;3283;52.330;9.772;2024-02-16T22:01:38;100419.47;;;8.10;100.00
6500;BME280;3283;52.330;9.772;2024-02-16T22:04:04;100430.00;;;8.07;100.00
6500;BME280;3283;52.330;9.772;2024-02-16T22:06:29;100428.28;;;8.04;100.00
6500;BME280;3283;52.330;9.772;2024-02-16T22:08:55;100429.13;;;8.03;100.00
6500;BME280;3283;52.330;9.772;2024-02-16T22:11:22;100432.69;;;7.97;100.00
6500;BME280;3283;52.330;9.772;2024-02-16T22:13:48;100439.69;;;7.92;100.00
6500;BME280;3283;52.330;9.772;2024-02-16T22:16:14;100441.41;;;7.95;100.00
6500;BME280;3283;52.330;9.772;2024-02-16T22:18:41;100444.06;;;7.92;100.00
6500;BME280;3283;52.330;9.772;2024-02-16T22:21:08;100447.50;;;7.95;100.00
6500;BME280;3283;52.330;9.772;2024-02-16T22:23:35;100444.94;;;7.88;100.00
6500;BME280;3283;52.330;9.772;2024-02-16T22:26:03;100458.06;;;7.89;100.00
6500;BME280;3283;52.330;9.772;2024-02-16T22:28:29;100454.63;;;7.70;100.00
6500;BME280;3283;52.330;9.772;2024-02-16T22:30:56;100452.81;;;7.85;100.00
6500;BME280;3283;52.330;9.772;2024-02-16T22:33:21;100451.94;;;7.84;100.00
6500;BME280;3283;52.330;9.772;2024-02-16T22:35:47;100455.38;;;7.95;100.00
6500;BME280;3283;52.330;9.772;2024-02-16T22:38:13;100458.91;;;7.91;100.00
6500;BME280;3283;52.330;9.772;2024-02-16T22:40:38;100464.06;;;8.02;100.00
6500;BME280;3283;52.330;9.772;2024-02-16T22:43:04;100471.97;;;8.01;100.00
6500;BME280;3283;52.330;9.772;2024-02-16T22:45:30;100464.00;;;8.17;100.00
6500;BME280;3283;52.330;9.772;2024-02-16T22:47:57;100465.72;;;8.21;100.00
6500;BME280;3283;52.330;9.772;2024-02-16T22:50:22;100471.00;;;8.15;100.00
6500;BME280;3283;52.330;9.772;2024-02-16T22:52:48;100471.88;;;8.19;100.00
6500;BME280;3283;52.330;9.772;2024-02-16T22:55:15;100471.00;;;8.18;100.00
6500;BME280;3283;52.330;9.772;2024-02-16T22:57:40;100476.28;;;8.12;100.00
6500;BME280;3283;52.330;9.772;2024-02-16T23:00:06;100482.38;;;8.10;100.00
6500;BME280;3283;52.330;9.772;2024-02-16T23:02:54;100477.22;;;7.96;100.00
6500;BME280;3283;52.330;9.772;2024-02-16T23:05:23;100477.19;;;8.05;100.00
6500;BME280;3283;52.330;9.772;2024-02-16T23:07:52;100487.69;;;8.01;100.00
6500;BME280;3283;52.330;9.772;2024-02-16T23:10:19;100492.84;;;8.19;100.00
6500;BME280;3283;52.330;9.772;2024-02-16T23:12:45;100498.97;;;8.19;100.00
6500;BME280;3283;52.330;9.772;2024-02-16T23:15:15;100504.28;;;7.95;100.00
6500;BME280;3283;52.330;9.772;2024-02-16T23:17:45;100513.09;;;7.79;100.00
6500;BME280;3283;52.330;9.772;2024-02-16T23:20:14;100506.06;;;7.91;100.00
6500;BME280;3283;52.330;9.772;2024-02-16T23:23:06;100506.97;;;7.83;100.00
6500;BME280;3283;52.330;9.772;2024-02-16T23:25:37;100507.84;;;7.74;100.00
6500;BME280;3283;52.330;9.772;2024-02-16T23:28:08;100514.84;;;7.77;100.00
6500;BME280;3283;52.330;9.772;2024-02-16T23:30:38;100527.94;;;7.74;100.00
6500;BME280;3283;52.330;9.772;2024-02-16T23:33:04;100521.84;;;7.71;100.00
6500;BME280;3283;52.330;9.772;2024-02-16T23:35:30;100520.06;;;7.80;100.00
6500;BME280;3283;52.330;9.772;2024-02-16T23:37:55;100527.94;;;7.84;100.00
6500;BME280;3283;52.330;9.772;2024-02-16T23:40:21;100531.44;;;7.83;100.00
6500;BME280;3283;52.330;9.772;2024-02-16T23:42:46;100530.53;;;7.92;100.00
6500;BME280;3283;52.330;9.772;2024-02-16T23:45:13;100535.78;;;7.86;100.00
6500;BME280;3283;52.330;9.772;2024-02-16T23:47:39;100544.47;;;7.95;100.00
6500;BME280;3283;52.330;9.772;2024-02-16T23:50:05;100532.28;;;7.87;100.00
6500;BME280;3283;52.330;9.772;2024-02-16T23:52:31;100545.38;;;7.81;100.00
6500;BME280;3283;52.330;9.772;2024-02-16T23:55:01;100545.44;;;7.76;100.00
6500;BME280;3283;52.330;9.772;2024-02-16T23:57:28;100547.19;;;7.69;100.00
6500;BME280;3283;52.330;9.772;2024-02-16T23:59:54;100559.38;;;7.67;100.00
